nws-alerts: Checking more than four warning/county codes can delay the loading of your pages. You should use a cron job to get the data.
EllijayWeather Station Historical Data
Daily Summary for March 20, 2019 Units:  English    Metric   Both
Daily Weekly Monthly Yearly Custom
  High: Low: Average:
Temperature: 60.8 °F 27.7 °F 43.7 °F
Dew Point: 31.3 °F 21.6 °F 26.2 °F
Humidity: 88% 24% 57%
Wind Speed: 4.9mph 0.0mph 0.1mph
Wind Gust: 5.0mph - -
Wind- - South
Pressure: 30.37 in 30.12 in -
Precipitation: 0.00 in    
Historical Graphs
 
 
Tabular Data for March 20, 2019
Time Temperature Dew Point Pressure Wind Wind Speed Wind Gust Humidity Rainfall Rate (Hourly) solar
00:04 34.0 °F 26.2 °F 30.37 in Calm     73% 0.00 in meteobridge W/m2
00:09 34.0 °F 26.2 °F 30.37 in Calm     73% 0.00 in meteobridge W/m2
00:14 33.6 °F 26.2 °F 30.37 in Calm     74% 0.00 in meteobridge W/m2
00:19 33.4 °F 26.1 °F 30.37 in Calm     74% 0.00 in meteobridge W/m2
00:24 33.3 °F 26.2 °F 30.37 in Calm     75% 0.00 in meteobridge W/m2
00:29 33.1 °F 26.4 °F 30.37 in Calm     76% 0.00 in meteobridge W/m2
00:34 33.1 °F 26.4 °F 30.37 in Calm     76% 0.00 in meteobridge W/m2
00:39 32.7 °F 26.2 °F 30.37 in Calm     77% 0.00 in meteobridge W/m2
00:44 32.7 °F 26.2 °F 30.37 in Calm     77% 0.00 in meteobridge W/m2
00:49 32.5 °F 26.1 °F 30.37 in Calm     77% 0.00 in meteobridge W/m2
00:54 32.4 °F 25.9 °F 30.37 in Calm     77% 0.00 in meteobridge W/m2
00:59 32.2 °F 25.7 °F 30.37 in Calm     77% 0.00 in meteobridge W/m2
01:04 32.2 °F 26.1 °F 30.37 in Calm     78% 0.00 in meteobridge W/m2
01:09 32.0 °F 25.9 °F 30.37 in Calm     78% 0.00 in meteobridge W/m2
01:14 31.8 °F 25.7 °F 30.37 in Calm     78% 0.00 in meteobridge W/m2
01:19 31.6 °F 25.5 °F 30.37 in Calm     78% 0.00 in meteobridge W/m2
01:24 31.5 °F 25.3 °F 30.37 in Calm     78% 0.00 in meteobridge W/m2
01:29 31.5 °F 25.3 °F 30.37 in Calm     78% 0.00 in meteobridge W/m2
01:34 31.3 °F 25.5 °F 30.37 in Calm     79% 0.00 in meteobridge W/m2
01:39 31.1 °F 25.3 °F 30.36 in Calm     79% 0.00 in meteobridge W/m2
01:44 31.1 °F 25.7 °F 30.36 in Calm     80% 0.00 in meteobridge W/m2
01:49 30.9 °F 25.5 °F 30.36 in Calm     80% 0.00 in meteobridge W/m2
01:54 30.9 °F 25.5 °F 30.36 in Calm     80% 0.00 in meteobridge W/m2
01:59 30.9 °F 25.7 °F 30.35 in Calm     81% 0.00 in meteobridge W/m2
02:04 30.7 °F 25.5 °F 30.36 in Calm     81% 0.00 in meteobridge W/m2
02:09 30.7 °F 25.5 °F 30.36 in Calm     81% 0.00 in meteobridge W/m2
02:14 30.7 °F 25.5 °F 30.36 in Calm     81% 0.00 in meteobridge W/m2
02:19 30.6 °F 25.3 °F 30.36 in Calm     81% 0.00 in meteobridge W/m2
02:24 30.6 °F 25.3 °F 30.36 in Calm     81% 0.00 in meteobridge W/m2
02:29 30.6 °F 25.3 °F 30.36 in Calm     81% 0.00 in meteobridge W/m2
02:34 30.4 °F 25.5 °F 30.36 in Calm     82% 0.00 in meteobridge W/m2
02:39 30.4 °F 25.5 °F 30.35 in Calm     82% 0.00 in meteobridge W/m2
02:44 30.4 °F 25.5 °F 30.36 in Calm     82% 0.00 in meteobridge W/m2
02:49 30.4 °F 25.5 °F 30.35 in Calm     82% 0.00 in meteobridge W/m2
02:54 30.4 °F 25.5 °F 30.35 in Calm     82% 0.00 in meteobridge W/m2
02:59 30.2 °F 25.3 °F 30.35 in Calm     82% 0.00 in meteobridge W/m2
03:04 30.0 °F 25.2 °F 30.35 in Calm     82% 0.00 in meteobridge W/m2
03:09 30.0 °F 25.5 °F 30.35 in Calm     83% 0.00 in meteobridge W/m2
03:14 29.8 °F 25.0 °F 30.35 in Calm     82% 0.00 in meteobridge W/m2
03:19 29.7 °F 25.2 °F 30.35 in Calm     83% 0.00 in meteobridge W/m2
03:24 29.7 °F 25.2 °F 30.35 in Calm     83% 0.00 in meteobridge W/m2
03:29 29.5 °F 25.0 °F 30.34 in Calm     83% 0.00 in meteobridge W/m2
03:34 29.5 °F 25.2 °F 30.34 in Calm     84% 0.00 in meteobridge W/m2
03:39 29.3 °F 25.2 °F 30.34 in Calm     84% 0.00 in meteobridge W/m2
03:44 29.3 °F 25.2 °F 30.34 in Calm     84% 0.00 in meteobridge W/m2
03:49 29.1 °F 25.0 °F 30.34 in Calm     84% 0.00 in meteobridge W/m2
03:54 29.1 °F 25.0 °F 30.34 in Calm     84% 0.00 in meteobridge W/m2
03:59 29.1 °F 25.0 °F 30.34 in Calm     84% 0.00 in meteobridge W/m2
04:04 29.1 °F 25.0 °F 30.34 in Calm     84% 0.00 in meteobridge W/m2
04:09 28.9 °F 24.8 °F 30.34 in Calm     84% 0.00 in meteobridge W/m2
04:14 28.9 °F 24.8 °F 30.33 in Calm     84% 0.00 in meteobridge W/m2
04:19 28.9 °F 24.8 °F 30.33 in Calm     84% 0.00 in meteobridge W/m2
04:24 28.9 °F 24.8 °F 30.32 in Calm     84% 0.00 in meteobridge W/m2
04:29 28.9 °F 24.8 °F 30.32 in Calm     84% 0.00 in meteobridge W/m2
04:34 28.9 °F 24.8 °F 30.32 in Calm     84% 0.00 in meteobridge W/m2
04:39 28.9 °F 24.8 °F 30.32 in Calm     84% 0.00 in meteobridge W/m2
04:44 28.9 °F 24.8 °F 30.32 in Calm     84% 0.00 in meteobridge W/m2
04:49 28.8 °F 24.6 °F 30.32 in Calm     84% 0.00 in meteobridge W/m2
04:54 28.9 °F 24.8 °F 30.32 in Calm     84% 0.00 in meteobridge W/m2
04:59 28.9 °F 24.8 °F 30.32 in Calm     84% 0.00 in meteobridge W/m2
05:04 28.9 °F 25.0 °F 30.32 in Calm     85% 0.00 in meteobridge W/m2
05:09 29.1 °F 25.2 °F 30.32 in Calm     85% 0.00 in meteobridge W/m2
05:14 29.1 °F 25.0 °F 30.32 in Calm     84% 0.00 in meteobridge W/m2
05:19 29.3 °F 24.8 °F 30.32 in Calm     83% 0.00 in meteobridge W/m2
05:24 29.5 °F 25.2 °F 30.32 in Calm     84% 0.00 in meteobridge W/m2
05:29 29.5 °F 25.2 °F 30.32 in Calm     84% 0.00 in meteobridge W/m2
05:34 29.5 °F 25.0 °F 30.32 in Calm     83% 0.00 in meteobridge W/m2
05:39 29.5 °F 25.0 °F 30.32 in Calm     83% 0.00 in meteobridge W/m2
05:44 29.1 °F 24.6 °F 30.32 in Calm     83% 0.00 in meteobridge W/m2
05:49 29.1 °F 24.6 °F 30.31 in Calm     83% 0.00 in meteobridge W/m2
05:54 28.9 °F 24.4 °F 30.31 in Calm     83% 0.00 in meteobridge W/m2
05:59 28.9 °F 24.8 °F 30.32 in Calm     84% 0.00 in meteobridge W/m2
06:04 28.9 °F 24.8 °F 30.32 in Calm     84% 0.00 in meteobridge W/m2
06:09 28.8 °F 24.6 °F 30.32 in Calm     84% 0.00 in meteobridge W/m2
06:14 28.8 °F 24.8 °F 30.32 in Calm     85% 0.00 in meteobridge W/m2
06:19 28.8 °F 24.8 °F 30.32 in Calm     85% 0.00 in meteobridge W/m2
06:24 28.9 °F 24.8 °F 30.32 in Calm     84% 0.00 in meteobridge W/m2
06:29 28.8 °F 24.6 °F 30.32 in Calm     84% 0.00 in meteobridge W/m2
06:34 28.9 °F 24.8 °F 30.32 in Calm     84% 0.00 in meteobridge W/m2
06:39 28.9 °F 25.0 °F 30.32 in Calm     85% 0.00 in meteobridge W/m2
06:44 28.8 °F 24.8 °F 30.33 in Calm     85% 0.00 in meteobridge W/m2
06:49 28.8 °F 24.8 °F 30.33 in Calm     85% 0.00 in meteobridge W/m2
06:54 28.8 °F 24.6 °F 30.34 in Calm     84% 0.00 in meteobridge W/m2
06:59 28.6 °F 24.6 °F 30.34 in Calm     85% 0.00 in meteobridge W/m2
07:04 28.6 °F 24.6 °F 30.34 in Calm     85% 0.00 in meteobridge W/m2
07:09 28.4 °F 24.3 °F 30.34 in Calm     84% 0.00 in meteobridge W/m2
07:14 28.4 °F 24.3 °F 30.34 in Calm     84% 0.00 in meteobridge W/m2
07:19 28.2 °F 24.1 °F 30.34 in Calm     84% 0.00 in meteobridge W/m2
07:24 28.0 °F 24.1 °F 30.34 in Calm     85% 0.00 in meteobridge W/m2
07:29 28.0 °F 24.1 °F 30.34 in Calm     85% 0.00 in meteobridge W/m2
07:34 28.0 °F 24.1 °F 30.34 in Calm     85% 0.00 in meteobridge W/m2
07:39 27.9 °F 24.3 °F 30.34 in Calm     86% 0.00 in meteobridge W/m2
07:44 27.9 °F 24.3 °F 30.35 in Calm     86% 0.00 in meteobridge W/m2
07:49 27.9 °F 24.3 °F 30.35 in Calm     86% 0.00 in meteobridge W/m2
07:54 27.9 °F 24.3 °F 30.35 in Calm     86% 0.00 in meteobridge W/m2
07:59 27.7 °F 24.3 °F 30.35 in Calm     87% 0.00 in meteobridge W/m2
08:04 27.7 °F 24.1 °F 30.35 in Calm     86% 0.00 in meteobridge W/m2
08:09 27.9 °F 24.4 °F 30.35 in Calm     87% 0.00 in meteobridge W/m2
08:14 27.9 °F 24.4 °F 30.35 in Calm     87% 0.00 in meteobridge W/m2
08:19 27.9 °F 24.4 °F 30.35 in Calm     87% 0.00 in meteobridge W/m2
08:24 28.0 °F 25.0 °F 30.35 in Calm     88% 0.00 in meteobridge W/m2
08:29 28.4 °F 25.3 °F 30.35 in Calm     88% 0.00 in meteobridge W/m2
08:34 28.8 °F 25.3 °F 30.35 in Calm     87% 0.00 in meteobridge W/m2
08:39 28.9 °F 25.5 °F 30.36 in Calm     87% 0.00 in meteobridge W/m2
08:44 29.3 °F 25.9 °F 30.36 in Calm     87% 0.00 in meteobridge W/m2
08:49 29.7 °F 26.2 °F 30.36 in Calm     87% 0.00 in meteobridge W/m2
08:54 29.8 °F 26.4 °F 30.36 in Calm     87% 0.00 in meteobridge W/m2
08:59 30.4 °F 26.8 °F 30.36 in Calm     86% 0.00 in meteobridge W/m2
09:04 30.6 °F 27.0 °F 30.36 in Calm     86% 0.00 in meteobridge W/m2
09:09 30.9 °F 27.1 °F 30.36 in Calm     86% 0.00 in meteobridge W/m2
09:14 31.6 °F 27.9 °F 30.36 in Calm     86% 0.00 in meteobridge W/m2
09:19 32.4 °F 28.0 °F 30.36 in Calm     84% 0.00 in meteobridge W/m2
09:24 33.1 °F 27.5 °F 30.36 in Calm     80% 0.00 in meteobridge W/m2
09:29 33.6 °F 27.9 °F 30.36 in Calm     79% 0.00 in meteobridge W/m2
09:34 34.5 °F 28.0 °F 30.36 in Calm     77% 0.00 in meteobridge W/m2
09:39 35.2 °F 28.4 °F 30.36 in Calm     76% 0.00 in meteobridge W/m2
09:44 36.0 °F 28.2 °F 30.36 in Calm     73% 0.00 in meteobridge W/m2
09:49 37.2 °F 29.7 °F 30.36 in Calm     74% 0.00 in meteobridge W/m2
09:54 37.9 °F 30.0 °F 30.36 in Calm     73% 0.00 in meteobridge W/m2
09:59 39.2 °F 30.9 °F 30.36 in Calm   1.0 mph 72% 0.00 in meteobridge W/m2
10:03 40.1 °F 30.7 °F 30.36 in Calm   1.0 mph 69% 0.00 in meteobridge W/m2
10:09 41.2 °F 30.7 °F 30.36 in Calm     66% 0.00 in meteobridge W/m2
10:14 42.1 °F 29.1 °F 30.36 in Calm   2.0 mph 60% 0.00 in meteobridge W/m2
10:19 43.3 °F 28.2 °F 30.35 in Calm     55% 0.00 in meteobridge W/m2
10:24 44.2 °F 28.6 °F 30.35 in Calm     54% 0.00 in meteobridge W/m2
10:29 46.6 °F 27.5 °F 30.35 in Calm   1.0 mph 47% 0.00 in meteobridge W/m2
10:34 47.7 °F 26.2 °F 30.35 in Calm     43% 0.00 in meteobridge W/m2
10:39 49.5 °F 26.8 °F 30.34 in ESE 0.9 mph 1.0 mph 41% 0.00 in meteobridge W/m2
10:44 50.4 °F 25.0 °F 30.34 in Calm   2.0 mph 37% 0.00 in meteobridge W/m2
10:49 51.1 °F 25.7 °F 30.34 in Calm     37% 0.00 in meteobridge W/m2
10:54 51.6 °F 24.8 °F 30.34 in Calm   4.0 mph 35% 0.00 in meteobridge W/m2
10:59 51.6 °F 25.5 °F 30.34 in Calm     36% 0.00 in meteobridge W/m2
11:04 52.2 °F 25.3 °F 30.34 in Calm   1.0 mph 35% 0.00 in meteobridge W/m2
11:09 52.7 °F 23.7 °F 30.34 in Calm     32% 0.00 in meteobridge W/m2
11:14 53.1 °F 25.3 °F 30.34 in Calm     34% 0.00 in meteobridge W/m2
11:19 53.2 °F 25.5 °F 30.34 in Calm     34% 0.00 in meteobridge W/m2
11:24 53.2 °F 23.4 °F 30.34 in Calm   1.0 mph 31% 0.00 in meteobridge W/m2
11:29 54.0 °F 24.8 °F 30.34 in Calm     32% 0.00 in meteobridge W/m2
11:34 54.3 °F 25.2 °F 30.33 in Calm   1.0 mph 32% 0.00 in meteobridge W/m2
11:39 54.9 °F 22.3 °F 30.33 in Calm   4.0 mph 28% 0.00 in meteobridge W/m2
11:44 54.9 °F 24.1 °F 30.33 in Calm   1.0 mph 30% 0.00 in meteobridge W/m2
11:49 55.0 °F 25.0 °F 30.33 in Calm     31% 0.00 in meteobridge W/m2
11:54 55.8 °F 23.2 °F 30.33 in Calm   1.0 mph 28% 0.00 in meteobridge W/m2
11:59 55.6 °F 23.0 °F 30.32 in Calm   1.0 mph 28% 0.00 in meteobridge W/m2
12:04 55.2 °F 23.5 °F 30.32 in Calm     29% 0.00 in meteobridge W/m2
12:09 55.4 °F 21.9 °F 30.32 in Calm   1.0 mph 27% 0.00 in meteobridge W/m2
12:14 55.8 °F 23.2 °F 30.32 in Calm   5.0 mph 28% 0.00 in meteobridge W/m2
12:19 56.1 °F 21.7 °F 30.32 in Calm   2.0 mph 26% 0.00 in meteobridge W/m2
12:24 55.9 °F 23.4 °F 30.31 in Calm     28% 0.00 in meteobridge W/m2
12:29 55.8 °F 22.3 °F 30.30 in Calm     27% 0.00 in meteobridge W/m2
12:34 55.8 °F 22.3 °F 30.30 in Calm   2.0 mph 27% 0.00 in meteobridge W/m2
12:39 55.8 °F 22.3 °F 30.30 in Calm     27% 0.00 in meteobridge W/m2
12:44 55.9 °F 21.6 °F 30.30 in Calm   3.0 mph 26% 0.00 in meteobridge W/m2
12:49 56.1 °F 22.6 °F 30.29 in West 0.9 mph 5.0 mph 27% 0.00 in meteobridge W/m2
12:54 55.9 °F 21.6 °F 30.29 in Calm   4.0 mph 26% 0.00 in meteobridge W/m2
12:59 55.8 °F 22.3 °F 30.29 in NW 0.9 mph 1.0 mph 27% 0.00 in meteobridge W/m2
13:04 55.9 °F 23.4 °F 30.28 in Calm   1.0 mph 28% 0.00 in meteobridge W/m2
13:09 56.7 °F 23.0 °F 30.28 in Calm   2.0 mph 27% 0.00 in meteobridge W/m2
13:14 57.0 °F 22.5 °F 30.28 in Calm   2.0 mph 26% 0.00 in meteobridge W/m2
13:19 57.2 °F 22.6 °F 30.28 in North 0.9 mph 1.0 mph 26% 0.00 in meteobridge W/m2
13:24 57.4 °F 22.8 °F 30.27 in Calm   1.0 mph 26% 0.00 in meteobridge W/m2
13:29 57.6 °F 23.0 °F 30.27 in ENE 4.0 mph 4.0 mph 26% 0.00 in meteobridge W/m2
13:34 57.9 °F 24.1 °F 30.27 in Calm     27% 0.00 in meteobridge W/m2
13:39 58.3 °F 24.4 °F 30.26 in Calm   2.0 mph 27% 0.00 in meteobridge W/m2
13:44 58.1 °F 22.5 °F 30.26 in Calm   2.0 mph 25% 0.00 in meteobridge W/m2
13:49 58.3 °F 22.6 °F 30.26 in ENE 0.9 mph 1.0 mph 25% 0.00 in meteobridge W/m2
13:54 57.9 °F 24.1 °F 30.25 in Calm   1.0 mph 27% 0.00 in meteobridge W/m2
13:59 58.3 °F 24.4 °F 30.25 in ESE 4.0 mph 5.0 mph 27% 0.00 in meteobridge W/m2
14:04 58.5 °F 23.7 °F 30.25 in Calm     26% 0.00 in meteobridge W/m2
14:09 58.6 °F 22.8 °F 30.24 in Calm   1.0 mph 25% 0.00 in meteobridge W/m2
14:14 58.6 °F 22.8 °F 30.24 in Calm   4.0 mph 25% 0.00 in meteobridge W/m2
14:19 58.6 °F 24.8 °F 30.24 in Calm   2.0 mph 27% 0.00 in meteobridge W/m2
14:24 58.8 °F 24.1 °F 30.23 in Calm   4.0 mph 26% 0.00 in meteobridge W/m2
14:29 59.4 °F 23.5 °F 30.23 in Calm   2.0 mph 25% 0.00 in meteobridge W/m2
14:34 59.4 °F 23.5 °F 30.23 in Calm   1.0 mph 25% 0.00 in meteobridge W/m2
14:39 59.5 °F 23.7 °F 30.22 in Calm   2.0 mph 25% 0.00 in meteobridge W/m2
14:44 60.1 °F 26.1 °F 30.22 in Calm   1.0 mph 27% 0.00 in meteobridge W/m2
14:49 60.4 °F 24.4 °F 30.22 in Calm   4.0 mph 25% 0.00 in meteobridge W/m2
14:54 60.3 °F 24.3 °F 30.21 in Calm   1.0 mph 25% 0.00 in meteobridge W/m2
14:59 59.9 °F 25.0 °F 30.21 in Calm   1.0 mph 26% 0.00 in meteobridge W/m2
15:04 60.1 °F 24.1 °F 30.20 in Calm     25% 0.00 in meteobridge W/m2
15:09 60.4 °F 24.4 °F 30.20 in Calm   3.0 mph 25% 0.00 in meteobridge W/m2
15:14 60.4 °F 25.3 °F 30.20 in Calm   3.0 mph 26% 0.00 in meteobridge W/m2
15:19 60.4 °F 25.3 °F 30.19 in Calm   1.0 mph 26% 0.00 in meteobridge W/m2
15:24 60.6 °F 25.5 °F 30.19 in Calm   1.0 mph 26% 0.00 in meteobridge W/m2
15:29 60.8 °F 25.7 °F 30.18 in ESE 0.9 mph 4.0 mph 26% 0.00 in meteobridge W/m2
15:34 60.6 °F 24.6 °F 30.18 in SE 0.9 mph 5.0 mph 25% 0.00 in meteobridge W/m2
15:39 60.6 °F 24.6 °F 30.18 in Calm     25% 0.00 in meteobridge W/m2
15:44 60.6 °F 24.6 °F 30.17 in Calm   4.0 mph 25% 0.00 in meteobridge W/m2
15:49 60.4 °F 24.4 °F 30.17 in Calm     25% 0.00 in meteobridge W/m2
15:54 60.4 °F 23.5 °F 30.17 in Calm   5.0 mph 24% 0.00 in meteobridge W/m2
15:59 60.3 °F 24.3 °F 30.17 in NNW 4.9 mph 5.0 mph 25% 0.00 in meteobridge W/m2
16:04 60.3 °F 25.2 °F 30.17 in WNW 2.0 mph 4.0 mph 26% 0.00 in meteobridge W/m2
16:09 60.4 °F 25.3 °F 30.16 in NW 2.0 mph 4.0 mph 26% 0.00 in meteobridge W/m2
16:14 60.4 °F 24.4 °F 30.16 in Calm   1.0 mph 25% 0.00 in meteobridge W/m2
16:19 60.6 °F 25.5 °F 30.16 in Calm     26% 0.00 in meteobridge W/m2
16:24 60.4 °F 25.3 °F 30.16 in NW 2.0 mph 4.0 mph 26% 0.00 in meteobridge W/m2
16:29 60.6 °F 26.4 °F 30.16 in Calm     27% 0.00 in meteobridge W/m2
16:34 60.6 °F 26.4 °F 30.16 in NW 0.9 mph 1.0 mph 27% 0.00 in meteobridge W/m2
16:39 60.6 °F 26.4 °F 30.16 in Calm   3.0 mph 27% 0.00 in meteobridge W/m2
16:44 60.6 °F 26.4 °F 30.15 in Calm   1.0 mph 27% 0.00 in meteobridge W/m2
16:49 60.6 °F 27.3 °F 30.16 in NW 2.0 mph 2.0 mph 28% 0.00 in meteobridge W/m2
16:54 60.4 °F 26.2 °F 30.15 in Calm   1.0 mph 27% 0.00 in meteobridge W/m2
16:59 60.4 °F 25.3 °F 30.15 in Calm   1.0 mph 26% 0.00 in meteobridge W/m2
17:04 60.3 °F 25.2 °F 30.15 in NW 0.9 mph 1.0 mph 26% 0.00 in meteobridge W/m2
17:09 60.3 °F 27.0 °F 30.15 in NW 0.9 mph 1.0 mph 28% 0.00 in meteobridge W/m2
17:14 60.3 °F 26.1 °F 30.15 in Calm   4.0 mph 27% 0.00 in meteobridge W/m2
17:19 60.1 °F 27.7 °F 30.15 in North 0.9 mph 4.0 mph 29% 0.00 in meteobridge W/m2
17:24 60.1 °F 26.8 °F 30.14 in Calm   4.0 mph 28% 0.00 in meteobridge W/m2
17:29 60.1 °F 26.8 °F 30.15 in Calm   3.0 mph 28% 0.00 in meteobridge W/m2
17:34 60.1 °F 26.8 °F 30.14 in Calm   2.0 mph 28% 0.00 in meteobridge W/m2
17:39 59.9 °F 25.9 °F 30.14 in Calm   5.0 mph 27% 0.00 in meteobridge W/m2
17:44 59.9 °F 25.9 °F 30.14 in Calm     27% 0.00 in meteobridge W/m2
17:49 59.7 °F 26.6 °F 30.14 in Calm   1.0 mph 28% 0.00 in meteobridge W/m2
17:54 59.9 °F 28.4 °F 30.14 in NNE 0.9 mph 1.0 mph 30% 0.00 in meteobridge W/m2
17:59 59.9 °F 27.5 °F 30.14 in Calm     29% 0.00 in meteobridge W/m2
18:04 59.7 °F 29.8 °F 30.14 in Calm   1.0 mph 32% 0.00 in meteobridge W/m2
18:09 59.7 °F 26.6 °F 30.14 in Calm     28% 0.00 in meteobridge W/m2
18:14 59.5 °F 28.9 °F 30.13 in Calm   2.0 mph 31% 0.00 in meteobridge W/m2
18:19 59.2 °F 27.0 °F 30.13 in Calm   1.0 mph 29% 0.00 in meteobridge W/m2
18:24 59.0 °F 29.1 °F 30.13 in Calm     32% 0.00 in meteobridge W/m2
18:29 58.8 °F 28.2 °F 30.13 in Calm     31% 0.00 in meteobridge W/m2
18:34 58.6 °F 27.3 °F 30.13 in Calm     30% 0.00 in meteobridge W/m2
18:39 58.5 °F 27.1 °F 30.13 in Calm     30% 0.00 in meteobridge W/m2
18:44 58.3 °F 27.9 °F 30.13 in NE 0.9 mph 1.0 mph 31% 0.00 in meteobridge W/m2
18:49 57.9 °F 28.2 °F 30.13 in Calm   1.0 mph 32% 0.00 in meteobridge W/m2
18:54 57.7 °F 28.0 °F 30.13 in Calm     32% 0.00 in meteobridge W/m2
18:59 57.4 °F 28.6 °F 30.13 in Calm   1.0 mph 33% 0.00 in meteobridge W/m2
19:04 57.2 °F 29.1 °F 30.13 in Calm     34% 0.00 in meteobridge W/m2
19:09 56.8 °F 29.5 °F 30.13 in Calm   1.0 mph 35% 0.00 in meteobridge W/m2
19:14 56.5 °F 28.4 °F 30.12 in Calm     34% 0.00 in meteobridge W/m2
19:19 56.1 °F 30.2 °F 30.13 in Calm     37% 0.00 in meteobridge W/m2
19:24 55.6 °F 30.4 °F 30.13 in Calm   3.0 mph 38% 0.00 in meteobridge W/m2
19:29 55.2 °F 30.0 °F 30.13 in Calm     38% 0.00 in meteobridge W/m2
19:34 54.9 °F 30.4 °F 30.13 in Calm     39% 0.00 in meteobridge W/m2
19:39 54.5 °F 28.0 °F 30.13 in Calm     36% 0.00 in meteobridge W/m2
19:44 54.1 °F 28.4 °F 30.13 in Calm     37% 0.00 in meteobridge W/m2
19:49 53.8 °F 28.0 °F 30.13 in Calm     37% 0.00 in meteobridge W/m2
19:54 53.4 °F 28.4 °F 30.13 in Calm     38% 0.00 in meteobridge W/m2
19:59 53.1 °F 28.0 °F 30.13 in Calm     38% 0.00 in meteobridge W/m2
20:04 52.5 °F 31.3 °F 30.13 in Calm     44% 0.00 in meteobridge W/m2
20:09 52.3 °F 28.0 °F 30.13 in Calm     39% 0.00 in meteobridge W/m2
20:14 52.0 °F 28.4 °F 30.14 in Calm     40% 0.00 in meteobridge W/m2
20:19 51.6 °F 28.0 °F 30.14 in Calm     40% 0.00 in meteobridge W/m2
20:24 51.3 °F 29.5 °F 30.14 in Calm     43% 0.00 in meteobridge W/m2
20:29 50.5 °F 29.5 °F 30.14 in Calm     44% 0.00 in meteobridge W/m2
20:34 49.8 °F 29.8 °F 30.14 in Calm     46% 0.00 in meteobridge W/m2
20:39 49.5 °F 30.0 °F 30.14 in Calm     47% 0.00 in meteobridge W/m2
20:44 48.9 °F 29.7 °F 30.14 in Calm     47% 0.00 in meteobridge W/m2
20:49 48.2 °F 29.5 °F 30.14 in Calm     48% 0.00 in meteobridge W/m2
20:54 47.7 °F 28.9 °F 30.14 in Calm     48% 0.00 in meteobridge W/m2
20:59 47.1 °F 28.9 °F 30.14 in Calm     49% 0.00 in meteobridge W/m2
21:04 46.8 °F 29.1 °F 30.14 in Calm     50% 0.00 in meteobridge W/m2
21:09 46.2 °F 28.6 °F 30.14 in Calm     50% 0.00 in meteobridge W/m2
21:14 45.9 °F 28.8 °F 30.14 in Calm     51% 0.00 in meteobridge W/m2
21:19 45.7 °F 29.5 °F 30.14 in Calm     53% 0.00 in meteobridge W/m2
21:24 45.1 °F 29.5 °F 30.14 in Calm     54% 0.00 in meteobridge W/m2
21:29 45.0 °F 29.3 °F 30.14 in Calm     54% 0.00 in meteobridge W/m2
21:34 44.6 °F 29.5 °F 30.14 in Calm     55% 0.00 in meteobridge W/m2
21:39 44.2 °F 29.1 °F 30.14 in Calm     55% 0.00 in meteobridge W/m2
21:44 44.1 °F 29.3 °F 30.14 in Calm     56% 0.00 in meteobridge W/m2
21:49 43.7 °F 29.5 °F 30.15 in Calm     57% 0.00 in meteobridge W/m2
21:54 43.3 °F 29.5 °F 30.15 in Calm     58% 0.00 in meteobridge W/m2
21:59 43.2 °F 29.8 °F 30.15 in Calm     59% 0.00 in meteobridge W/m2
22:04 43.0 °F 29.7 °F 30.15 in Calm     59% 0.00 in meteobridge W/m2
22:09 42.8 °F 29.8 °F 30.15 in Calm     60% 0.00 in meteobridge W/m2
22:14 42.4 °F 30.0 °F 30.15 in Calm     61% 0.00 in meteobridge W/m2
22:19 42.3 °F 29.8 °F 30.15 in Calm     61% 0.00 in meteobridge W/m2
22:24 42.1 °F 29.7 °F 30.15 in Calm     61% 0.00 in meteobridge W/m2
22:29 41.9 °F 29.8 °F 30.15 in Calm     62% 0.00 in meteobridge W/m2
22:34 41.5 °F 29.8 °F 30.15 in Calm     63% 0.00 in meteobridge W/m2
22:39 41.4 °F 29.7 °F 30.15 in Calm     63% 0.00 in meteobridge W/m2
22:44 41.2 °F 30.0 °F 30.15 in Calm     64% 0.00 in meteobridge W/m2
22:49 41.0 °F 30.2 °F 30.14 in Calm     65% 0.00 in meteobridge W/m2
22:54 40.8 °F 30.4 °F 30.14 in Calm     66% 0.00 in meteobridge W/m2
22:59 40.6 °F 29.8 °F 30.14 in Calm     65% 0.00 in meteobridge W/m2
23:04 40.6 °F 29.8 °F 30.14 in Calm     65% 0.00 in meteobridge W/m2
23:09 40.6 °F 30.2 °F 30.14 in Calm     66% 0.00 in meteobridge W/m2
23:14 40.6 °F 30.2 °F 30.14 in Calm     66% 0.00 in meteobridge W/m2
23:19 40.5 °F 30.4 °F 30.14 in Calm     67% 0.00 in meteobridge W/m2
23:24 40.6 °F 30.6 °F 30.14 in Calm     67% 0.00 in meteobridge W/m2
23:29 40.5 °F 30.4 °F 30.14 in Calm     67% 0.00 in meteobridge W/m2
23:34 40.5 °F 30.7 °F 30.14 in Calm     68% 0.00 in meteobridge W/m2
23:39 40.5 °F 30.7 °F 30.14 in Calm     68% 0.00 in meteobridge W/m2
23:44 40.3 °F 30.6 °F 30.14 in Calm     68% 0.00 in meteobridge W/m2
23:49 40.5 °F 31.1 °F 30.13 in Calm     69% 0.00 in meteobridge W/m2
23:54 40.3 °F 31.3 °F 30.13 in Calm     70% 0.00 in meteobridge W/m2
23:59 40.3 °F 30.6 °F 30.13 in Calm     68% 0.00 in meteobridge W/m2
EllijayWeather
Compliments of Weather Underground - 2.5 mb